createdAt,value
2023-01-17T00:00:50.259Z,5.09
2023-01-17T00:02:52.132Z,5.06
2023-01-17T00:04:53.800Z,5.08
2023-01-17T00:06:58.227Z,5.09
2023-01-17T00:09:02.565Z,5.09
2023-01-17T00:11:05.842Z,5.08
2023-01-17T00:13:07.856Z,5.07
2023-01-17T00:15:10.677Z,5.08
2023-01-17T00:17:12.329Z,5.07
2023-01-17T00:19:14.129Z,5.07
2023-01-17T00:21:15.889Z,5.07
2023-01-17T00:23:21.599Z,5.08
2023-01-17T00:25:26.380Z,5.09
2023-01-17T00:27:28.207Z,5.05
2023-01-17T00:29:30.091Z,5.06
2023-01-17T00:31:31.805Z,5.05
2023-01-17T00:33:34.073Z,5.04
2023-01-17T00:35:35.670Z,5.03
2023-01-17T00:37:37.410Z,5.05
2023-01-17T00:39:40.318Z,4.99
2023-01-17T00:41:42.131Z,5.01
2023-01-17T00:43:43.802Z,5.00
2023-01-17T00:45:46.531Z,5.00
2023-01-17T00:47:48.209Z,4.99
2023-01-17T00:49:50.770Z,4.98
2023-01-17T00:51:52.334Z,4.98
2023-01-17T00:53:53.903Z,4.97
2023-01-17T00:56:00.692Z,4.97
2023-01-17T00:58:06.303Z,4.96
2023-01-17T01:00:12.140Z,4.94
2023-01-17T01:02:14.015Z,4.94
2023-01-17T01:04:15.759Z,4.93
2023-01-17T01:06:18.937Z,4.90
2023-01-17T01:08:22.652Z,4.90
2023-01-17T01:10:24.345Z,4.90
2023-01-17T01:12:27.412Z,4.90
2023-01-17T01:14:31.022Z,4.90
2023-01-17T01:16:32.915Z,4.85
2023-01-17T01:18:34.647Z,4.86
2023-01-17T01:20:36.287Z,4.86
2023-01-17T01:22:37.882Z,4.85
2023-01-17T01:24:39.365Z,4.84
2023-01-17T01:26:40.855Z,4.83
2023-01-17T01:28:43.767Z,4.81
2023-01-17T01:30:45.406Z,4.80
2023-01-17T01:32:47.166Z,4.78
2023-01-17T01:34:48.707Z,4.79
2023-01-17T01:36:50.250Z,4.75
2023-01-17T01:38:55.926Z,4.77
2023-01-17T01:40:59.236Z,4.77
2023-01-17T01:43:02.480Z,4.76
2023-01-17T01:45:16.849Z,4.75
2023-01-17T01:47:26.971Z,4.73
2023-01-17T01:49:28.880Z,4.72
2023-01-17T01:51:35.378Z,4.70
2023-01-17T01:53:46.588Z,4.67
2023-01-17T01:55:51.264Z,4.67
2023-01-17T01:57:59.891Z,4.64
2023-01-17T02:00:08.239Z,4.65
2023-01-17T02:02:09.976Z,4.61
2023-01-17T02:04:13.050Z,4.64
2023-01-17T02:06:26.127Z,4.62
2023-01-17T02:08:28.164Z,4.59
2023-01-17T02:10:34.032Z,4.58
2023-01-17T02:12:36.021Z,4.57
2023-01-17T02:14:37.707Z,4.59
2023-01-17T02:17:08.220Z,4.59
2023-01-17T02:20:05.288Z,4.56
2023-01-17T02:22:31.850Z,4.56
2023-01-17T02:25:06.865Z,4.54
2023-01-17T02:27:21.504Z,4.50
2023-01-17T02:30:01.963Z,4.51
2023-01-17T02:32:10.371Z,4.46
2023-01-17T02:34:19.387Z,4.45
2023-01-17T02:36:27.437Z,4.43
2023-01-17T02:38:37.133Z,4.43
2023-01-17T02:40:43.047Z,4.40
2023-01-17T02:42:51.802Z,4.38
2023-01-17T02:44:53.357Z,4.36
2023-01-17T02:46:56.598Z,4.35
2023-01-17T02:48:59.833Z,4.34
2023-01-17T02:51:27.220Z,4.35
2023-01-17T02:53:43.818Z,4.31
2023-01-17T02:55:57.264Z,4.30
2023-01-17T02:58:10.035Z,4.28
2023-01-17T03:00:22.082Z,4.27
2023-01-17T03:02:35.617Z,4.25
2023-01-17T03:04:44.911Z,4.26
2023-01-17T03:06:51.904Z,4.23
2023-01-17T03:08:54.433Z,4.24
2023-01-17T03:10:58.006Z,4.22
2023-01-17T03:13:04.121Z,4.21
2023-01-17T03:15:09.892Z,4.22
2023-01-17T03:17:11.598Z,4.20
2023-01-17T03:19:13.299Z,4.18
2023-01-17T03:21:16.432Z,4.18
2023-01-17T03:23:18.170Z,4.19
2023-01-17T03:25:19.942Z,4.17
2023-01-17T03:27:21.579Z,4.16
2023-01-17T03:29:24.374Z,4.19
2023-01-17T03:31:27.543Z,4.17
2023-01-17T03:33:30.864Z,4.15
2023-01-17T03:35:32.665Z,4.15
2023-01-17T03:37:37.863Z,4.15
2023-01-17T03:39:41.361Z,4.15
2023-01-17T03:41:43.148Z,4.15
2023-01-17T03:43:45.771Z,4.15
2023-01-17T03:45:51.514Z,4.14
2023-01-17T03:47:53.203Z,4.12
2023-01-17T03:49:54.933Z,4.11
2023-01-17T03:51:56.651Z,4.13
2023-01-17T03:53:59.861Z,4.12
2023-01-17T03:56:01.654Z,4.13
2023-01-17T03:58:08.111Z,4.13
2023-01-17T04:00:11.071Z,4.12
2023-01-17T04:02:12.949Z,4.13
2023-01-17T04:04:14.613Z,4.10
2023-01-17T04:06:16.563Z,4.11
2023-01-17T04:08:18.222Z,4.11
2023-01-17T04:10:25.005Z,4.10
2023-01-17T04:12:26.776Z,4.10
2023-01-17T04:14:29.782Z,4.09
2023-01-17T04:16:38.553Z,4.08
2023-01-17T04:18:40.204Z,4.08
2023-01-17T04:20:42.000Z,4.03
2023-01-17T04:22:43.747Z,4.03
2023-01-17T04:24:47.235Z,4.04
2023-01-17T04:26:50.279Z,4.04
2023-01-17T04:28:51.840Z,4.03
2023-01-17T04:30:53.551Z,4.03
2023-01-17T04:32:55.412Z,4.03
2023-01-17T04:34:59.303Z,4.01
2023-01-17T04:37:02.244Z,4.02
2023-01-17T04:39:06.079Z,4.03
2023-01-17T04:41:09.664Z,4.03
2023-01-17T04:43:12.874Z,4.01
2023-01-17T04:45:16.469Z,4.02
2023-01-17T04:47:17.959Z,4.02
2023-01-17T04:49:19.515Z,4.03
2023-01-17T04:51:21.156Z,4.03
2023-01-17T04:53:22.756Z,4.02
2023-01-17T04:55:24.616Z,4.00
2023-01-17T04:57:26.148Z,3.97
2023-01-17T04:59:29.091Z,4.00
2023-01-17T05:01:30.757Z,4.00
2023-01-17T05:03:33.220Z,4.00
2023-01-17T05:05:34.788Z,3.98
2023-01-17T05:07:38.271Z,3.99
2023-01-17T05:09:40.251Z,4.00
2023-01-17T05:12:03.781Z,4.02
2023-01-17T05:14:05.426Z,4.00
2023-01-17T05:16:09.138Z,4.00
2023-01-17T05:18:12.769Z,3.98
2023-01-17T05:20:17.195Z,4.01
2023-01-17T05:22:18.940Z,3.97
2023-01-17T05:24:20.838Z,3.97
2023-01-17T05:26:22.454Z,3.96
2023-01-17T05:28:24.196Z,3.97
2023-01-17T05:30:27.358Z,3.97
2023-01-17T05:32:30.377Z,3.97
2023-01-17T05:34:33.519Z,3.97
2023-01-17T05:36:38.997Z,3.96
2023-01-17T05:38:41.913Z,3.97
2023-01-17T05:40:43.715Z,3.95
2023-01-17T05:42:47.919Z,3.95
2023-01-17T05:44:49.615Z,3.93
2023-01-17T15:34:09.722Z,4.95
2023-01-17T16:21:45.962Z,4.35
2023-01-17T16:35:15.029Z,4.22
2023-01-17T17:42:55.107Z,3.56
2023-01-17T18:04:44.818Z,3.40
2023-01-17T18:12:14.525Z,3.31
2023-01-17T18:14:26.743Z,3.28
2023-01-17T20:02:35.623Z,2.69
2023-01-17T20:13:12.151Z,2.64
